Faringdon, United Kingdom
Current Conditions -  °F | °C
As of 4:50 PM on Thursday 23 Oct 2014 (Local Time) from EGVN Reporting Station
Drizzle Drizzle  
Wind Chill: 15°   Ceiling: 3000
Heat Index: 15°   Visibility: 6mi
Dew Point: 12°   Wind: 10mph
Humidity: 82%   Direction: 200°SSW
Pressure: 30"   Gusts: NA
Location:  51.66°N, 1.59°W
Report Text: EGVN 231550Z 20009KT 9999 -DZ FEW012 SCT018 BKN030 15/12 Q1016 WHT NOSIG
Loading
Personal Weather Stations






























Interactive Weather Map
Tropical Storm Tracking
New forecast layout! Learn more

10-Day Weather Forecast

Advertisements
Track Severe Weather on mobile